Time;durP1;ratioP1;P1;durP2;ratioP2;P2;SDS_P1;SDS_P2;PMS_P1;PMS_P2;Temp;Humidity;BMP_temperature;BMP_pressure;BME280_temperature;BME280_humidity;BME280_pressure;Samples;Min_cycle;Max_cycle;Signal;HPM_P1;HPM_P2
2023/10/27 00:00:18;;;;;;;19.20;12.73;;;9.70;99.90;;;;;;2050341;28;20134;-84
2023/10/27 00:01:19;;;;;;;28.23;15.52;;;9.80;99.90;;;;;;2065912;28;20018;-84
2023/10/27 00:02:19;;;;;;;26.58;14.57;;;9.70;99.90;;;;;;2060932;28;20015;-84
2023/10/27 00:03:20;;;;;;;28.75;14.73;;;9.70;99.90;;;;;;2059576;28;20034;-83
2023/10/27 00:04:20;;;;;;;24.80;13.23;;;9.70;99.90;;;;;;2057558;28;20405;-85
2023/10/27 00:05:21;;;;;;;24.55;14.25;;;9.70;99.90;;;;;;2053773;28;20023;-83
2023/10/27 00:06:22;;;;;;;31.52;14.90;;;9.70;99.90;;;;;;2061726;28;20054;-84
2023/10/27 00:07:22;;;;;;;29.58;15.48;;;9.60;99.90;;;;;;2056665;28;20034;-85
2023/10/27 00:08:23;;;;;;;34.03;17.50;;;9.60;99.90;;;;;;2063998;28;20034;-84
2023/10/27 00:09:25;;;;;;;33.50;16.98;;;9.60;99.90;;;;;;2058654;28;20046;-85
2023/10/27 00:10:26;;;;;;;37.53;18.55;;;9.50;99.90;;;;;;2065402;28;20038;-84
2023/10/27 00:11:27;;;;;;;47.58;22.63;;;9.50;99.90;;;;;;2060476;28;20038;-85
2023/10/27 00:12:27;;;;;;;58.45;25.88;;;9.50;99.90;;;;;;2057163;28;20133;-84
2023/10/27 00:13:28;;;;;;;51.70;24.73;;;9.50;99.90;;;;;;2067455;28;20042;-84
2023/10/27 00:14:28;;;;;;;41.70;19.13;;;9.50;99.90;;;;;;2055293;28;20047;-85
2023/10/27 00:15:29;;;;;;;33.15;17.33;;;9.60;99.90;;;;;;2062198;28;20022;-84
2023/10/27 00:16:30;;;;;;;33.53;17.42;;;9.60;99.90;;;;;;2061963;28;20477;-85
2023/10/27 00:17:30;;;;;;;25.13;14.13;;;9.70;99.90;;;;;;2067995;28;20030;-85
2023/10/27 00:18:31;;;;;;;22.17;13.35;;;9.70;99.90;;;;;;2068240;28;20668;-85
2023/10/27 00:19:32;;;;;;;26.15;13.55;;;9.70;99.90;;;;;;2060542;28;20085;-83
2023/10/27 00:20:32;;;;;;;22.30;12.15;;;9.70;99.90;;;;;;2071436;28;20022;-84
2023/10/27 00:21:33;;;;;;;15.55;10.20;;;9.70;99.90;;;;;;2069401;28;20018;-85
2023/10/27 00:22:35;;;;;;;13.23;9.63;;;9.80;99.90;;;;;;2053522;28;20034;-85
2023/10/27 00:23:36;;;;;;;16.63;9.45;;;9.80;99.90;;;;;;2059582;28;20461;-86
2023/10/27 00:24:36;;;;;;;12.90;9.65;;;9.90;99.90;;;;;;2056805;28;20023;-84
2023/10/27 00:25:37;;;;;;;14.15;9.60;;;9.90;99.90;;;;;;2063789;28;20084;-85
2023/10/27 00:26:37;;;;;;;14.35;10.10;;;9.90;99.90;;;;;;2058821;28;20098;-86
2023/10/27 00:27:38;;;;;;;19.13;10.38;;;9.90;99.90;;;;;;2059243;28;20027;-86
2023/10/27 00:28:39;;;;;;;16.40;9.93;;;9.90;99.90;;;;;;2055607;28;20027;-86
2023/10/27 00:29:39;;;;;;;16.13;10.20;;;9.90;99.90;;;;;;2057259;28;20023;-87
2023/10/27 00:30:40;;;;;;;19.50;10.82;;;9.90;99.90;;;;;;2056438;28;20642;-86
2023/10/27 00:31:41;;;;;;;14.52;9.98;;;10.00;99.90;;;;;;2051938;28;20359;-86
2023/10/27 00:32:41;;;;;;;21.00;11.85;;;10.00;99.90;;;;;;2057375;28;20030;-86
2023/10/27 00:33:42;;;;;;;18.10;11.90;;;10.00;99.90;;;;;;2055171;28;20425;-86
2023/10/27 00:34:42;;;;;;;23.98;15.45;;;10.00;99.90;;;;;;2058052;28;20033;-87
2023/10/27 00:35:43;;;;;;;14.80;10.93;;;10.00;99.90;;;;;;2054175;28;20041;-86
2023/10/27 00:36:43;;;;;;;19.30;11.95;;;10.10;99.90;;;;;;2054603;28;20054;-86
2023/10/27 00:37:44;;;;;;;14.63;9.60;;;10.10;99.90;;;;;;2057526;28;20075;-87
2023/10/27 00:38:47;;;;;;;14.05;9.07;;;10.10;99.90;;;;;;2054176;28;20114;-87
2023/10/27 00:39:48;;;;;;;13.02;8.57;;;10.10;99.90;;;;;;2057029;28;20068;-86
2023/10/27 00:40:49;;;;;;;16.00;10.10;;;10.10;99.90;;;;;;2056997;28;20023;-86
2023/10/27 00:41:49;;;;;;;12.27;9.00;;;10.10;99.90;;;;;;2055856;28;20063;-86
2023/10/27 00:42:50;;;;;;;15.60;9.07;;;10.10;99.90;;;;;;2063236;28;20384;-85
2023/10/27 00:43:51;;;;;;;15.07;8.82;;;10.10;99.90;;;;;;2056506;28;20105;-84
2023/10/27 00:44:52;;;;;;;15.18;8.18;;;10.10;99.90;;;;;;2057699;28;20117;-86
2023/10/27 00:45:53;;;;;;;14.52;9.70;;;10.10;99.90;;;;;;2058531;28;20054;-85
2023/10/27 00:46:55;;;;;;;11.85;8.13;;;10.10;99.90;;;;;;2061563;28;20030;-86
2023/10/27 00:47:56;;;;;;;13.07;8.48;;;10.10;99.90;;;;;;2055540;28;20121;-86
2023/10/27 00:48:57;;;;;;;12.55;7.93;;;10.10;99.90;;;;;;2059101;28;20026;-87
2023/10/27 00:49:58;;;;;;;11.05;7.85;;;10.10;99.90;;;;;;2058045;28;20034;-85
2023/10/27 00:51:01;;;;;;;12.43;7.97;;;10.10;99.90;;;;;;2046565;28;20026;-85
2023/10/27 00:52:02;;;;;;;11.70;7.22;;;10.10;99.90;;;;;;2056267;28;20034;-83
2023/10/27 00:53:03;;;;;;;13.00;7.75;;;10.10;99.90;;;;;;2062189;28;20030;-86
2023/10/27 00:54:08;;;;;;;15.00;7.80;;;10.10;99.90;;;;;;2057066;28;20034;-85
2023/10/27 00:55:09;;;;;;;10.18;6.53;;;10.10;99.90;;;;;;2054808;28;20041;-84
2023/10/27 00:56:10;;;;;;;11.70;7.05;;;10.10;99.90;;;;;;2063796;28;20045;-87
2023/10/27 00:57:11;;;;;;;10.80;7.70;;;10.10;99.90;;;;;;2063505;28;20219;-85
2023/10/27 00:58:13;;;;;;;12.63;6.78;;;10.10;99.90;;;;;;2054629;28;20093;-75
2023/10/27 00:59:14;;;;;;;11.60;6.47;;;10.20;99.90;;;;;;2049742;28;20429;-79
2023/10/27 01:00:15;;;;;;;8.68;6.72;;;10.20;99.90;;;;;;2060168;28;20038;-79
2023/10/27 01:01:17;;;;;;;9.88;7.13;;;10.20;99.90;;;;;;2062554;28;20034;-78
2023/10/27 01:02:18;;;;;;;10.70;6.50;;;10.20;99.90;;;;;;2047026;28;20031;-72
2023/10/27 01:03:19;;;;;;;9.70;6.55;;;10.20;99.90;;;;;;2043436;28;20102;-73
2023/10/27 01:04:20;;;;;;;9.80;6.32;;;10.20;99.90;;;;;;2055203;28;20092;-72
2023/10/27 01:05:20;;;;;;;10.60;6.63;;;10.20;99.90;;;;;;2052786;28;20506;-72
2023/10/27 01:06:23;;;;;;;10.82;6.80;;;10.30;99.90;;;;;;2058600;28;20318;-72
2023/10/27 01:07:24;;;;;;;11.18;6.38;;;10.30;99.90;;;;;;2045219;28;20509;-71
2023/10/27 01:08:25;;;;;;;7.38;6.28;;;10.20;99.90;;;;;;2044389;28;20019;-73
2023/10/27 01:09:25;;;;;;;7.05;5.93;;;10.20;99.90;;;;;;2048239;28;20049;-73
2023/10/27 01:10:27;;;;;;;8.93;6.40;;;10.20;99.90;;;;;;2050770;28;20390;-72
2023/10/27 01:11:29;;;;;;;8.57;5.90;;;10.20;99.90;;;;;;2043349;28;20106;-72
2023/10/27 01:12:29;;;;;;;10.10;5.97;;;10.20;99.90;;;;;;2049668;28;20022;-72
2023/10/27 01:13:30;;;;;;;8.05;6.03;;;10.20;99.90;;;;;;2043333;28;20058;-72
2023/10/27 01:14:31;;;;;;;8.63;6.35;;;10.10;99.90;;;;;;2054287;28;20023;-73
2023/10/27 01:15:31;;;;;;;9.43;6.13;;;10.10;99.90;;;;;;2050554;28;20030;-72
2023/10/27 01:16:32;;;;;;;10.82;6.68;;;10.20;99.90;;;;;;2046857;28;20031;-73
2023/10/27 01:17:32;;;;;;;11.75;7.25;;;10.20;99.90;;;;;;2055037;28;20105;-72
2023/10/27 01:18:33;;;;;;;11.75;7.47;;;10.20;99.90;;;;;;2058537;28;20509;-73
2023/10/27 01:19:36;;;;;;;9.20;6.57;;;10.20;99.90;;;;;;2054682;28;20018;-72
2023/10/27 01:20:36;;;;;;;9.50;6.68;;;10.20;99.90;;;;;;2058875;28;20577;-72
2023/10/27 01:21:37;;;;;;;7.75;6.13;;;10.20;99.90;;;;;;2058430;28;20041;-72
2023/10/27 01:22:44;;;;;;;8.82;5.75;;;10.20;99.90;;;;;;2050850;28;20131;-72
2023/10/27 01:23:45;;;;;;;8.15;5.70;;;10.20;99.90;;;;;;2051585;28;20026;-72
2023/10/27 01:24:46;;;;;;;10.35;7.07;;;10.20;99.90;;;;;;2053190;28;20633;-72
2023/10/27 01:25:47;;;;;;;11.65;7.55;;;10.20;99.90;;;;;;2056633;28;20028;-73
2023/10/27 01:26:49;;;;;;;16.08;7.80;;;10.10;99.90;;;;;;2056811;28;20440;-72
2023/10/27 01:27:49;;;;;;;15.95;8.20;;;10.20;99.90;;;;;;2052570;28;20030;-72
2023/10/27 01:28:50;;;;;;;16.55;9.05;;;10.20;99.90;;;;;;2054659;28;20026;-72
2023/10/27 01:29:51;;;;;;;18.15;9.13;;;10.30;99.90;;;;;;2060581;28;20034;-72
2023/10/27 01:30:52;;;;;;;20.83;10.27;;;10.30;99.90;;;;;;2058849;28;20228;-72
2023/10/27 01:31:52;;;;;;;15.18;8.90;;;10.30;99.90;;;;;;2062761;28;20596;-72
2023/10/27 01:32:53;;;;;;;13.05;6.18;;;10.30;99.90;;;;;;2050389;28;20031;-74
2023/10/27 01:33:53;;;;;;;12.25;6.70;;;10.40;99.90;;;;;;2049984;28;20490;-72
2023/10/27 01:34:54;;;;;;;12.60;7.60;;;10.30;99.90;;;;;;2061146;28;20065;-72
2023/10/27 01:35:54;;;;;;;14.45;8.10;;;10.30;99.90;;;;;;2061233;28;20041;-72
2023/10/27 01:36:55;;;;;;;16.15;9.45;;;10.30;99.90;;;;;;2050505;28;20574;-72
2023/10/27 01:37:55;;;;;;;16.58;9.63;;;10.30;99.90;;;;;;2050564;28;20772;-72
2023/10/27 01:38:56;;;;;;;19.02;9.77;;;10.20;99.90;;;;;;2047663;28;20513;-72
2023/10/27 01:39:57;;;;;;;22.70;10.43;;;10.20;99.90;;;;;;2058383;28;20015;-72
2023/10/27 01:40:57;;;;;;;13.98;8.00;;;10.30;99.90;;;;;;2052622;28;20026;-73
2023/10/27 01:41:58;;;;;;;12.05;6.75;;;10.30;99.90;;;;;;2054008;28;20596;-73
2023/10/27 01:42:58;;;;;;;10.60;6.57;;;10.30;99.90;;;;;;2043743;28;20031;-72
2023/10/27 01:43:59;;;;;;;9.60;6.35;;;10.30;99.90;;;;;;2052156;28;20565;-73
2023/10/27 01:45:04;;;;;;;13.98;6.88;;;10.30;99.90;;;;;;2062548;28;20037;-72
2023/10/27 01:46:05;;;;;;;10.77;7.13;;;10.30;99.90;;;;;;2051229;28;20023;-72
2023/10/27 01:47:05;;;;;;;13.27;7.65;;;10.30;99.90;;;;;;2054091;28;20034;-73
2023/10/27 01:48:06;;;;;;;13.85;7.20;;;10.40;99.90;;;;;;2050787;28;20023;-72
2023/10/27 01:49:07;;;;;;;12.15;6.63;;;10.40;99.90;;;;;;2058356;28;20026;-72
2023/10/27 01:50:08;;;;;;;7.15;5.80;;;10.30;99.90;;;;;;2058381;28;20026;-72
2023/10/27 01:51:08;;;;;;;9.57;6.20;;;10.40;99.90;;;;;;2060578;28;20018;-73
2023/10/27 01:52:09;;;;;;;9.63;6.25;;;10.40;99.90;;;;;;2056650;28;20039;-72
2023/10/27 01:53:10;;;;;;;11.05;6.57;;;10.40;99.90;;;;;;2055632;28;20050;-72
2023/10/27 01:54:10;;;;;;;7.63;5.85;;;10.30;99.90;;;;;;2057524;28;20034;-72
2023/10/27 01:55:11;;;;;;;9.63;5.78;;;10.40;99.90;;;;;;2055207;28;20444;-72
2023/10/27 01:56:11;;;;;;;11.70;5.80;;;10.30;99.90;;;;;;2055914;28;20031;-74
2023/10/27 01:57:12;;;;;;;7.28;5.68;;;10.30;99.90;;;;;;2057937;28;20027;-73
2023/10/27 01:58:13;;;;;;;8.30;5.85;;;10.30;99.90;;;;;;2049265;28;20536;-73
2023/10/27 01:59:13;;;;;;;7.07;5.25;;;10.40;99.90;;;;;;2047428;28;20501;-73
2023/10/27 02:00:14;;;;;;;5.47;4.72;;;10.40;99.90;;;;;;2049331;28;20034;-72
2023/10/27 02:01:16;;;;;;;7.78;5.00;;;10.40;99.90;;;;;;2042445;28;20031;-71
2023/10/27 02:02:17;;;;;;;11.15;5.10;;;10.30;99.90;;;;;;2052663;28;20027;-72
2023/10/27 02:03:18;;;;;;;8.27;4.82;;;10.30;99.90;;;;;;2059497;28;20335;-72
2023/10/27 02:04:20;;;;;;;6.00;4.55;;;10.30;99.90;;;;;;2044020;28;20185;-72
2023/10/27 02:05:20;;;;;;;5.80;4.70;;;10.30;99.90;;;;;;2040305;28;20094;-72
2023/10/27 02:06:26;;;;;;;7.03;4.90;;;10.30;99.90;;;;;;2055021;28;20516;-72
2023/10/27 02:07:26;;;;;;;8.13;4.90;;;10.30;99.90;;;;;;2038434;28;20015;-72
2023/10/27 02:08:27;;;;;;;7.65;5.07;;;10.30;99.90;;;;;;2049120;28;20019;-72
2023/10/27 02:09:28;;;;;;;8.95;5.20;;;10.30;99.90;;;;;;2058123;28;20054;-72
2023/10/27 02:10:28;;;;;;;6.22;5.00;;;10.30;99.90;;;;;;2058482;28;20046;-72
2023/10/27 02:11:29;;;;;;;6.60;5.22;;;10.30;99.90;;;;;;2054106;28;20027;-72
2023/10/27 02:12:29;;;;;;;6.63;4.82;;;10.30;99.90;;;;;;2053340;28;20046;-72
2023/10/27 02:13:30;;;;;;;8.68;4.70;;;10.40;99.90;;;;;;2059093;28;20073;-72
2023/10/27 02:14:31;;;;;;;6.80;4.90;;;10.40;99.90;;;;;;2061742;28;20704;-73
2023/10/27 02:15:32;;;;;;;7.03;4.95;;;10.40;99.90;;;;;;2050440;28;20486;-74
2023/10/27 02:16:33;;;;;;;5.93;4.75;;;10.40;99.90;;;;;;2042608;28;20023;-74
2023/10/27 02:17:34;;;;;;;5.53;4.50;;;10.40;99.90;;;;;;2054211;28;20035;-73
2023/10/27 02:18:34;;;;;;;8.27;5.20;;;10.40;99.90;;;;;;2058039;28;20045;-72
2023/10/27 02:19:35;;;;;;;6.43;5.10;;;10.40;99.90;;;;;;2045683;28;20030;-72
2023/10/27 02:20:36;;;;;;;8.48;4.90;;;10.40;99.90;;;;;;2038424;29;20042;-72
2023/10/27 02:21:36;;;;;;;6.95;4.78;;;10.30;99.90;;;;;;2045536;28;20034;-74
2023/10/27 02:22:37;;;;;;;8.45;4.95;;;10.40;99.90;;;;;;2042338;28;20023;-72
2023/10/27 02:23:37;;;;;;;5.72;5.05;;;10.40;99.90;;;;;;2050532;28;20549;-72
2023/10/27 02:24:38;;;;;;;6.75;4.95;;;10.40;99.90;;;;;;2062021;28;20517;-72
2023/10/27 02:25:39;;;;;;;6.03;4.93;;;10.40;99.90;;;;;;2062832;28;20027;-72
2023/10/27 02:26:39;;;;;;;7.18;4.95;;;10.40;99.90;;;;;;2061859;28;20033;-72
2023/10/27 02:27:41;;;;;;;6.15;4.97;;;10.40;99.90;;;;;;2055121;28;20033;-73
2023/10/27 02:28:41;;;;;;;7.65;5.00;;;10.40;99.90;;;;;;2061535;28;20052;-74
2023/10/27 02:29:42;;;;;;;6.03;5.15;;;10.40;99.90;;;;;;2053549;28;20541;-72
2023/10/27 02:30:43;;;;;;;9.98;4.78;;;10.40;99.90;;;;;;2053746;28;20061;-72
2023/10/27 02:31:43;;;;;;;5.55;4.65;;;10.40;99.90;;;;;;2058349;28;20034;-72
2023/10/27 02:32:44;;;;;;;9.30;4.70;;;10.40;99.90;;;;;;2057746;28;20196;-72
2023/10/27 02:33:45;;;;;;;6.03;4.85;;;10.40;99.90;;;;;;2060121;28;20424;-72
2023/10/27 02:34:45;;;;;;;5.47;4.72;;;10.40;99.90;;;;;;2056203;28;20034;-72
2023/10/27 02:35:46;;;;;;;8.02;5.00;;;10.40;99.90;;;;;;2060384;28;20029;-72
2023/10/27 02:36:47;;;;;;;5.47;4.65;;;10.50;99.90;;;;;;2059336;28;20036;-72
2023/10/27 02:37:47;;;;;;;6.72;4.78;;;10.50;99.90;;;;;;2055075;28;20042;-73
2023/10/27 02:38:48;;;;;;;6.63;4.90;;;10.50;99.90;;;;;;2052705;28;20141;-72
2023/10/27 02:39:48;;;;;;;7.03;4.47;;;10.40;99.90;;;;;;2054105;28;20054;-71
2023/10/27 02:40:49;;;;;;;7.30;4.43;;;10.50;99.90;;;;;;2051947;28;20034;-72
2023/10/27 02:41:49;;;;;;;7.45;4.82;;;10.50;99.90;;;;;;2047335;28;20561;-72
2023/10/27 02:42:50;;;;;;;7.57;5.13;;;10.50;99.90;;;;;;2055101;28;20054;-72
2023/10/27 02:43:50;;;;;;;5.38;4.65;;;10.50;99.90;;;;;;2050007;28;20039;-72
2023/10/27 02:44:51;;;;;;;5.43;4.93;;;10.50;99.90;;;;;;2049679;28;20031;-72
2023/10/27 02:46:02;;;;;;;6.22;4.80;;;10.40;99.90;;;;;;2055621;28;20109;-73
2023/10/27 02:47:02;;;;;;;7.32;5.25;;;10.40;99.90;;;;;;2050218;28;20026;-72
2023/10/27 02:48:03;;;;;;;5.55;4.47;;;10.40;99.90;;;;;;2050791;28;20042;-72
2023/10/27 02:49:04;;;;;;;5.25;4.75;;;10.40;99.90;;;;;;2050450;28;20066;-73
2023/10/27 02:50:05;;;;;;;6.18;4.55;;;10.40;99.90;;;;;;2061840;28;20030;-73
2023/10/27 02:51:05;;;;;;;9.18;5.07;;;10.40;99.90;;;;;;2049638;28;20546;-73
2023/10/27 02:52:06;;;;;;;5.10;4.60;;;10.40;99.90;;;;;;2045390;28;20027;-71
2023/10/27 02:53:06;;;;;;;6.85;4.70;;;10.40;99.90;;;;;;2045638;28;20420;-72
2023/10/27 02:54:07;;;;;;;5.78;4.88;;;10.50;99.90;;;;;;2050191;28;20038;-72
2023/10/27 02:55:08;;;;;;;5.70;4.60;;;10.50;99.90;;;;;;2054186;28;20026;-72
2023/10/27 02:56:09;;;;;;;6.60;4.88;;;10.40;99.90;;;;;;2061480;28;20022;-72
2023/10/27 02:57:10;;;;;;;6.47;5.28;;;10.40;99.90;;;;;;2058308;28;20034;-72
2023/10/27 02:58:11;;;;;;;6.78;5.40;;;10.40;99.90;;;;;;2061560;28;20117;-72
2023/10/27 02:59:11;;;;;;;7.65;5.75;;;10.40;99.90;;;;;;2053354;28;20109;-72
2023/10/27 03:00:12;;;;;;;7.53;6.00;;;10.30;99.90;;;;;;2046563;28;20042;-72
2023/10/27 03:01:15;;;;;;;7.32;5.93;;;10.30;99.90;;;;;;2048026;28;20045;-72
2023/10/27 03:02:18;;;;;;;8.32;5.80;;;10.30;99.90;;;;;;2052528;28;20521;-72
2023/10/27 03:03:18;;;;;;;8.60;5.72;;;10.30;99.90;;;;;;2051965;28;20035;-73
2023/10/27 03:04:19;;;;;;;7.47;5.70;;;10.30;99.90;;;;;;2059768;28;20567;-72
2023/10/27 03:05:19;;;;;;;7.10;5.30;;;10.30;99.90;;;;;;2045523;28;20023;-72
2023/10/27 03:06:20;;;;;;;7.43;5.25;;;10.30;99.90;;;;;;2036181;28;20534;-72
2023/10/27 03:07:20;;;;;;;9.50;5.45;;;10.30;99.90;;;;;;2045412;28;20030;-73
2023/10/27 03:08:21;;;;;;;5.35;4.85;;;10.30;99.90;;;;;;2049251;28;20034;-72
2023/10/27 03:09:22;;;;;;;6.35;5.25;;;10.30;99.90;;;;;;2046034;28;20118;-72
2023/10/27 03:10:22;;;;;;;7.15;5.60;;;10.20;99.90;;;;;;2057324;28;20030;-72
2023/10/27 03:11:23;;;;;;;6.93;5.30;;;10.20;99.90;;;;;;2052115;28;20039;-72
2023/10/27 03:12:23;;;;;;;6.60;5.18;;;10.30;99.90;;;;;;2051441;28;20046;-72
2023/10/27 03:13:26;;;;;;;9.55;5.43;;;10.30;99.90;;;;;;2053035;28;20038;-75
2023/10/27 03:14:26;;;;;;;10.05;5.30;;;10.30;99.90;;;;;;2055602;28;20034;-72
2023/10/27 03:15:27;;;;;;;7.10;5.57;;;10.30;99.90;;;;;;2057874;28;20554;-72
2023/10/27 03:16:27;;;;;;;9.32;5.03;;;10.30;99.90;;;;;;2058102;28;20030;-72
2023/10/27 03:17:28;;;;;;;6.57;5.20;;;10.30;99.90;;;;;;2057869;28;20030;-72
2023/10/27 03:18:29;;;;;;;8.13;5.47;;;10.30;99.90;;;;;;2055962;28;20682;-72
2023/10/27 03:19:29;;;;;;;6.03;5.40;;;10.30;99.90;;;;;;2047747;28;20031;-73
2023/10/27 03:20:30;;;;;;;8.52;5.20;;;10.40;99.90;;;;;;2057617;28;20097;-74
2023/10/27 03:21:30;;;;;;;7.07;5.20;;;10.40;99.90;;;;;;2053894;28;20046;-73
2023/10/27 03:22:32;;;;;;;7.53;5.13;;;10.40;99.90;;;;;;2060648;28;20022;-72
2023/10/27 03:23:33;;;;;;;7.72;5.68;;;10.40;99.90;;;;;;2054509;28;20061;-72
2023/10/27 03:24:34;;;;;;;6.70;5.47;;;10.40;99.90;;;;;;2049662;28;20109;-72
2023/10/27 03:25:34;;;;;;;6.72;5.40;;;10.40;99.90;;;;;;2049849;28;20019;-72
2023/10/27 03:26:35;;;;;;;8.00;6.00;;;10.40;99.90;;;;;;2046623;28;20104;-72
2023/10/27 03:27:35;;;;;;;10.45;5.90;;;10.40;99.90;;;;;;2050668;28;20502;-72
2023/10/27 03:28:36;;;;;;;7.97;5.65;;;10.40;99.90;;;;;;2057566;28;20022;-72
2023/10/27 03:29:36;;;;;;;7.07;5.93;;;10.40;99.90;;;;;;2057797;28;20027;-73
2023/10/27 03:30:38;;;;;;;13.15;9.98;;;10.40;99.90;;;;;;2046298;28;20517;-72
2023/10/27 03:31:39;;;;;;;7.93;6.45;;;10.40;99.90;;;;;;2046410;28;20126;-73
2023/10/27 03:32:39;;;;;;;8.98;6.30;;;10.40;99.90;;;;;;2054177;28;20102;-72
2023/10/27 03:33:40;;;;;;;11.45;6.72;;;10.40;99.90;;;;;;2046444;28;20260;-72
2023/10/27 03:34:41;;;;;;;10.68;6.50;;;10.40;99.90;;;;;;2046593;28;20027;-73
2023/10/27 03:35:43;;;;;;;12.10;5.78;;;10.40;99.90;;;;;;2054149;28;20026;-73
2023/10/27 03:36:44;;;;;;;7.65;5.90;;;10.40;99.90;;;;;;2046121;28;20027;-72
2023/10/27 03:37:44;;;;;;;7.43;5.45;;;10.40;99.90;;;;;;2062166;28;20049;-72
2023/10/27 03:38:45;;;;;;;8.18;5.97;;;10.40;99.90;;;;;;2061594;28;20026;-72
2023/10/27 03:39:46;;;;;;;9.02;5.75;;;10.40;99.90;;;;;;2047417;28;20559;-72
2023/10/27 03:40:48;;;;;;;9.25;5.65;;;10.50;99.90;;;;;;2051438;28;20679;-72
2023/10/27 03:41:49;;;;;;;7.00;5.90;;;10.50;99.90;;;;;;2058359;28;20396;-72
2023/10/27 03:42:49;;;;;;;9.15;5.93;;;10.50;99.90;;;;;;2051750;28;20034;-73
2023/10/27 03:43:50;;;;;;;7.18;5.63;;;10.50;99.90;;;;;;2049750;28;20518;-73
2023/10/27 03:44:50;;;;;;;8.23;5.47;;;10.50;99.90;;;;;;2056806;28;20453;-72
2023/10/27 03:45:51;;;;;;;10.77;5.80;;;10.50;99.90;;;;;;2050558;28;20037;-72
2023/10/27 03:46:51;;;;;;;7.63;5.50;;;10.40;99.90;;;;;;2050434;28;20045;-72
2023/10/27 03:47:52;;;;;;;8.73;5.70;;;10.40;99.90;;;;;;2055558;28;20030;-72
2023/10/27 03:48:53;;;;;;;7.10;5.93;;;10.40;99.90;;;;;;2059199;28;20027;-73
2023/10/27 03:49:53;;;;;;;9.65;5.22;;;10.40;99.90;;;;;;2060222;28;20029;-73
2023/10/27 03:50:54;;;;;;;7.47;5.53;;;10.40;99.90;;;;;;2054833;28;20657;-73
2023/10/27 03:51:56;;;;;;;7.80;5.80;;;10.40;99.90;;;;;;2055420;28;20109;-73
2023/10/27 03:52:56;;;;;;;8.43;6.10;;;10.40;99.90;;;;;;2053702;28;20042;-73
2023/10/27 03:53:57;;;;;;;7.32;6.00;;;10.30;99.90;;;;;;2049985;28;20110;-73
2023/10/27 03:54:57;;;;;;;8.73;6.05;;;10.30;99.90;;;;;;2045524;28;20685;-72
2023/10/27 03:55:58;;;;;;;8.68;5.95;;;10.30;99.90;;;;;;2055092;28;20030;-73
2023/10/27 03:57:01;;;;;;;8.30;6.40;;;10.30;99.90;;;;;;2055652;28;20034;-71
2023/10/27 03:58:20;;;;;;;9.30;6.28;;;10.30;99.90;;;;;;2056247;28;20513;-71
2023/10/27 03:59:20;;;;;;;8.80;6.10;;;10.40;99.90;;;;;;2060317;28;20193;-72
2023/10/27 04:00:23;;;;;;;10.80;6.18;;;10.40;99.90;;;;;;2058740;28;20803;-72
2023/10/27 04:01:26;;;;;;;10.32;6.15;;;10.40;99.90;;;;;;2055849;28;20121;-71
2023/10/27 04:02:27;;;;;;;9.23;6.55;;;10.40;99.90;;;;;;2058594;28;20026;-71
2023/10/27 04:03:30;;;;;;;10.85;6.45;;;10.40;99.90;;;;;;2063617;28;20026;-72
2023/10/27 04:04:31;;;;;;;9.45;6.70;;;10.40;99.90;;;;;;2061315;28;20756;-71
2023/10/27 04:05:32;;;;;;;9.13;6.30;;;10.40;99.90;;;;;;2047873;28;20026;-73
2023/10/27 04:06:32;;;;;;;9.48;6.32;;;10.40;99.90;;;;;;2052687;28;20426;-73
2023/10/27 04:07:33;;;;;;;15.23;6.97;;;10.50;99.90;;;;;;2055597;28;20101;-72
2023/10/27 04:08:33;;;;;;;12.57;7.28;;;10.40;99.90;;;;;;2053219;28;20036;-72
2023/10/27 04:09:34;;;;;;;13.98;7.32;;;10.40;99.90;;;;;;2049531;28;20027;-73
2023/10/27 04:10:36;;;;;;;13.93;7.00;;;10.40;99.90;;;;;;2056824;28;20038;-72
2023/10/27 04:11:37;;;;;;;17.60;7.75;;;10.50;99.90;;;;;;2059087;28;20061;-72
2023/10/27 04:12:38;;;;;;;14.57;7.88;;;10.50;99.90;;;;;;2062767;28;20085;-73
2023/10/27 04:13:39;;;;;;;17.17;7.43;;;10.50;99.90;;;;;;2055020;28;20731;-73
2023/10/27 04:14:40;;;;;;;25.27;9.27;;;10.50;99.90;;;;;;2059471;28;20072;-73
2023/10/27 04:15:40;;;;;;;21.77;9.55;;;10.50;99.90;;;;;;2058936;28;20264;-73
2023/10/27 04:16:41;;;;;;;22.10;8.82;;;10.50;99.90;;;;;;2058867;28;20105;-72
2023/10/27 04:17:41;;;;;;;19.63;8.90;;;10.50;99.90;;;;;;2062798;28;20037;-72
2023/10/27 04:18:42;;;;;;;22.20;9.10;;;10.50;99.90;;;;;;2047201;28;20126;-73
2023/10/27 04:19:46;;;;;;;19.50;9.10;;;10.50;99.90;;;;;;2058889;28;20163;-73
2023/10/27 04:20:46;;;;;;;22.20;8.95;;;10.50;99.90;;;;;;2060032;28;20042;-73
2023/10/27 04:21:47;;;;;;;19.45;8.52;;;10.50;99.90;;;;;;2055889;28;20083;-74
2023/10/27 04:22:48;;;;;;;19.00;9.20;;;10.50;99.90;;;;;;2055183;28;20494;-72
2023/10/27 04:23:48;;;;;;;19.77;8.65;;;10.50;99.90;;;;;;2056941;28;20041;-73
2023/10/27 04:24:49;;;;;;;20.77;8.90;;;10.50;99.90;;;;;;2060691;28;20026;-72
2023/10/27 04:25:51;;;;;;;19.40;8.55;;;10.50;99.90;;;;;;2061664;28;20037;-73
2023/10/27 04:26:52;;;;;;;20.45;8.57;;;10.50;99.90;;;;;;2055466;28;20513;-72
2023/10/27 04:27:55;;;;;;;21.55;9.02;;;10.50;99.90;;;;;;2059079;28;20057;-73
2023/10/27 04:28:55;;;;;;;20.33;9.00;;;10.50;99.90;;;;;;2062112;28;20101;-73
2023/10/27 04:29:57;;;;;;;15.98;8.50;;;10.50;99.90;;;;;;2059676;28;20034;-72
2023/10/27 04:30:57;;;;;;;17.95;9.15;;;10.50;99.90;;;;;;2059797;28;20599;-72
2023/10/27 04:31:58;;;;;;;19.02;9.20;;;10.50;99.90;;;;;;2048665;28;20042;-72
2023/10/27 04:33:00;;;;;;;23.83;9.57;;;10.50;99.90;;;;;;2048154;28;20030;-73
2023/10/27 04:34:01;;;;;;;20.05;9.75;;;10.50;99.90;;;;;;2063695;28;20100;-72
2023/10/27 04:35:02;;;;;;;19.20;9.43;;;10.50;99.90;;;;;;2062447;28;20118;-73
2023/10/27 04:36:06;;;;;;;22.35;10.38;;;10.60;99.90;;;;;;2060208;28;20023;-73
2023/10/27 04:37:06;;;;;;;19.10;10.00;;;10.60;99.90;;;;;;2062539;28;20061;-73
2023/10/27 04:38:07;;;;;;;20.05;10.38;;;10.50;99.90;;;;;;2055584;28;20073;-72
2023/10/27 04:39:07;;;;;;;21.00;11.45;;;10.50;99.90;;;;;;2055658;28;20023;-72
2023/10/27 04:40:09;;;;;;;22.75;13.20;;;10.60;99.90;;;;;;2051873;28;20627;-71
2023/10/27 04:41:10;;;;;;;23.75;13.98;;;10.60;99.90;;;;;;2060672;28;20036;-71
2023/10/27 04:42:11;;;;;;;23.50;14.00;;;10.60;99.90;;;;;;2054698;28;20026;-72
2023/10/27 04:43:11;;;;;;;23.50;13.57;;;10.60;99.90;;;;;;2046946;28;20114;-72
2023/10/27 04:44:12;;;;;;;22.65;13.68;;;10.50;99.90;;;;;;2063402;28;20113;-72
2023/10/27 04:45:12;;;;;;;23.65;14.27;;;10.50;99.90;;;;;;2049123;28;20042;-72
2023/10/27 04:46:13;;;;;;;30.92;15.40;;;10.50;99.90;;;;;;2041374;28;20035;-72
2023/10/27 04:47:14;;;;;;;25.98;16.40;;;10.50;99.90;;;;;;2049121;28;20034;-72
2023/10/27 04:48:14;;;;;;;29.73;16.05;;;10.50;99.90;;;;;;2060700;28;20037;-74
2023/10/27 04:49:16;;;;;;;27.05;15.88;;;10.50;99.90;;;;;;2050444;28;20513;-72
2023/10/27 04:50:20;;;;;;;23.17;15.80;;;10.50;99.90;;;;;;2047769;28;20874;-72
2023/10/27 04:51:21;;;;;;;25.48;15.85;;;10.60;99.90;;;;;;2059043;28;20042;-72
2023/10/27 04:52:21;;;;;;;23.45;15.10;;;10.60;99.90;;;;;;2055247;28;20115;-71
2023/10/27 04:53:22;;;;;;;26.73;15.43;;;10.60;99.90;;;;;;2048152;28;20679;-71
2023/10/27 04:54:22;;;;;;;24.77;15.52;;;10.70;99.90;;;;;;2049140;28;20045;-73
2023/10/27 04:55:23;;;;;;;23.30;15.02;;;10.70;99.90;;;;;;2051931;28;20035;-70
2023/10/27 04:56:24;;;;;;;23.23;15.00;;;10.60;99.90;;;;;;2049533;28;20039;-72
2023/10/27 04:57:24;;;;;;;23.08;13.98;;;10.60;99.90;;;;;;2057485;28;20375;-72
2023/10/27 04:58:25;;;;;;;24.08;14.00;;;10.60;99.90;;;;;;2044716;28;20479;-73
2023/10/27 04:59:25;;;;;;;23.35;14.02;;;10.60;99.90;;;;;;2050450;28;20037;-72
2023/10/27 05:00:26;;;;;;;24.88;13.90;;;10.70;99.90;;;;;;2057255;28;20033;-73
2023/10/27 05:01:26;;;;;;;20.73;13.75;;;10.60;99.90;;;;;;2061217;28;20037;-72
2023/10/27 05:02:27;;;;;;;23.83;14.68;;;10.60;99.90;;;;;;2057644;28;20027;-72
2023/10/27 05:03:28;;;;;;;24.73;14.13;;;10.60;99.90;;;;;;2061329;28;20425;-74
2023/10/27 05:04:29;;;;;;;21.02;14.05;;;10.60;99.90;;;;;;2061038;28;20026;-72
2023/10/27 05:05:29;;;;;;;25.77;15.13;;;10.60;99.90;;;;;;2051972;28;20027;-70
2023/10/27 05:06:30;;;;;;;24.15;14.10;;;10.60;99.90;;;;;;2060348;28;20149;-71
2023/10/27 05:07:31;;;;;;;23.45;13.95;;;10.60;99.90;;;;;;2059213;28;20592;-72
2023/10/27 05:08:31;;;;;;;21.60;13.43;;;10.60;99.90;;;;;;2060197;28;20037;-72
2023/10/27 05:09:32;;;;;;;19.80;12.02;;;10.60;99.90;;;;;;2058673;28;20569;-71
2023/10/27 05:10:33;;;;;;;19.17;11.95;;;10.60;99.90;;;;;;2057487;28;20043;-72
2023/10/27 05:11:35;;;;;;;18.90;11.27;;;10.70;99.90;;;;;;2059336;28;20037;-76
2023/10/27 05:12:36;;;;;;;18.58;11.73;;;10.70;99.90;;;;;;2046820;28;20034;-71
2023/10/27 05:13:36;;;;;;;19.20;10.77;;;10.70;99.90;;;;;;2050867;28;20034;-71
2023/10/27 05:14:37;;;;;;;18.13;10.77;;;10.70;99.90;;;;;;2050569;28;20030;-72